Terminal Aerodrome Forecast
Issued by NWS

Home | Current Version | Previous Version | Text Only | Print | Product List | Glossary On
Versions: 1 2 3 4 5 6 7 8 9 10 11 12 13 14 15 16 17 18 19 20 21 22 23 24 25 26 27 28 29 30 31 32 33 34 35
000
FTUS41 KOKX 041412 AAC
TAFGON
TAF AMD
KGON 041412Z 0414/0512 19006KT P6SM VCFG SKC
     FM041500 20007KT P6SM SKC
     FM041800 20010G16KT P6SM FEW100 SCT250
     FM042200 21009KT P6SM SCT250
     FM050000 21009KT P6SM SCT250 WS010/23045KT
     FM050300 22005KT P6SM SCT250 WS010/23045KT
     FM050800 22005KT P6SM SCT250=

USA.gov is the U.S. government's official web portal to all federal, state and local government web resources and services.